Bookmark and Share
Track history (hours):
 

San Fermin Berria

Last reported at 2014-Apr-23 15:29 UTC. Time now 2014-Apr-24 02:24 UTC.
Position N 43°34' W 001°46'.

Length 30 m.

Type: Fishing. MMSI: 224114650.

NotesDate/timePositionNaut miles runAvg speedWind from/ knotsBaromVisibWave heightAir tempDewpointWater temp
2014-Apr-23 15:29N 43°34' W 001°46'7 7.7
2014-Apr-23 14:33N 43°27' W 001°46'4 1.4
2014-Apr-23 11:33N 43°23' W 001°47'0 0.0
2014-Apr-23 10:32N 43°23' W 001°47'0 0.0
2014-Apr-23 09:33N 43°23' W 001°47'1010.1
2014-Apr-23 08:32N 43°33' W 001°45'1 0.0
2014-Apr-22 16:33N 43°33' W 001°45'10 9.8
2014-Apr-22 15:33N 43°23' W 001°48'0 0.0
2014-Apr-22 09:31N 43°23' W 001°47'0 0.1
2014-Apr-22 08:33N 43°23' W 001°48'0 0.1
2014-Apr-22 07:33N 43°23' W 001°47'0 0.0
2014-Apr-22 06:33N 43°23' W 001°47'2 1.7
2014-Apr-22 05:32N 43°25' W 001°46'8 6.9
2014-Apr-22 04:25N 43°32' W 001°44'2 0.1
2014-Apr-21 09:06N 43°34' W 001°46'710.7
2014-Apr-21 08:26N 43°27' W 001°46'4 4.8
2014-Apr-21 07:33N 43°23' W 001°48'  
2014-Apr-16 15:30N 43°23' W 001°47'0 0.1
2014-Apr-16 14:32N 43°23' W 001°47'0 0.1
2014-Apr-16 13:32N 43°23' W 001°47'0 0.0
2014-Apr-16 12:33N 43°23' W 001°47'0 0.0
2014-Apr-16 11:33N 43°23' W 001°47'0 0.1
2014-Apr-16 10:33N 43°23' W 001°47'13 0.6
2014-Apr-15 12:31N 43°36' W 001°45'13 6.9
2014-Apr-15 10:34N 43°23' W 001°47'0 0.1
2014-Apr-15 09:34N 43°23' W 001°48'8 0.3
2014-Apr-14 07:31N 43°31' W 001°44'8 8.7
2014-Apr-14 06:33N 43°23' W 001°47'  

Dump ship's entire track history

sailing weather and tide predictions

San Fermin Berria — EBVW — position and weather